Time;durP1;ratioP1;P1;durP2;ratioP2;P2;SDS_P1;SDS_P2;PMS_P1;PMS_P2;Temp;Humidity;BMP_temperature;BMP_pressure;BME280_temperature;BME280_humidity;BME280_pressure;Samples;Min_cycle;Max_cycle;Signal;HPM_P1;HPM_P2
2021/07/30 00:02:23;;;;;;;8.10;7.40;;;25.70;60.10;;;;;;4359142;32;20070;-43
2021/07/30 00:04:49;;;;;;;9.48;8.50;;;25.70;60.10;;;;;;4359855;32;20514;-43
2021/07/30 00:07:16;;;;;;;10.48;8.48;;;25.80;60.10;;;;;;4359255;32;20103;-44
2021/07/30 00:09:42;;;;;;;10.30;8.00;;;25.70;60.20;;;;;;4359561;32;20143;-44
2021/07/30 00:12:09;;;;;;;11.50;7.80;;;25.70;60.30;;;;;;4359557;32;20059;-44
2021/07/30 00:14:35;;;;;;;9.95;8.75;;;25.70;60.30;;;;;;4360020;32;20082;-43
2021/07/30 00:17:02;;;;;;;8.57;7.47;;;25.70;60.40;;;;;;4358381;32;20138;-43
2021/07/30 00:19:28;;;;;;;13.45;9.25;;;25.70;60.40;;;;;;4359218;32;20522;-44
2021/07/30 00:21:55;;;;;;;8.52;7.68;;;25.70;60.30;;;;;;4359189;32;20082;-44
2021/07/30 00:24:21;;;;;;;8.65;7.90;;;25.70;60.20;;;;;;4359032;32;20057;-43
2021/07/30 00:26:50;;;;;;;14.45;8.55;;;25.70;60.10;;;;;;4359090;32;20071;-43
2021/07/30 00:29:18;;;;;;;10.50;8.48;;;25.70;60.00;;;;;;4345341;32;20159;-44
2021/07/30 00:31:44;;;;;;;9.50;8.30;;;25.70;60.00;;;;;;4358870;32;20519;-44
2021/07/30 00:34:10;;;;;;;8.45;7.57;;;25.70;60.00;;;;;;4358941;32;20454;-44
2021/07/30 00:36:37;;;;;;;9.20;8.30;;;25.70;59.90;;;;;;4359206;32;20078;-44
2021/07/30 00:39:03;;;;;;;9.27;8.38;;;25.70;59.80;;;;;;4359249;32;20084;-44
2021/07/30 00:41:35;;;;;;;9.70;8.10;;;25.80;59.80;;;;;;4358736;32;20078;-44
2021/07/30 00:44:02;;;;;;;11.43;7.93;;;25.80;59.80;;;;;;4358995;32;20066;-43
2021/07/30 00:46:29;;;;;;;10.80;8.57;;;25.80;59.90;;;;;;4311847;33;20109;-43
2021/07/30 00:48:55;;;;;;;9.18;8.27;;;25.80;60.00;;;;;;4300050;33;20593;-43
2021/07/30 00:51:22;;;;;;;10.07;9.05;;;25.80;59.90;;;;;;4296382;33;20092;-43
2021/07/30 00:53:50;;;;;;;9.52;8.63;;;25.80;59.90;;;;;;4285577;33;20074;-43
2021/07/30 00:56:17;;;;;;;10.10;9.20;;;25.80;60.00;;;;;;4297530;33;20151;-43
2021/07/30 00:58:43;;;;;;;9.00;8.05;;;25.80;59.80;;;;;;4291615;33;20166;-44
2021/07/30 01:01:10;;;;;;;9.80;8.90;;;25.80;59.70;;;;;;4299995;33;20064;-44
2021/07/30 01:03:37;;;;;;;9.32;7.78;;;25.80;59.60;;;;;;4300167;33;20073;-44
2021/07/30 01:06:04;;;;;;;11.85;9.45;;;25.80;59.50;;;;;;4311529;33;20078;-44
2021/07/30 01:08:30;;;;;;;10.85;9.00;;;25.80;59.60;;;;;;4311883;33;20126;-43
2021/07/30 01:10:57;;;;;;;10.30;9.40;;;25.70;59.50;;;;;;4299905;33;20153;-43
2021/07/30 01:13:23;;;;;;;10.07;9.07;;;25.70;59.70;;;;;;4311579;33;20479;-42
2021/07/30 01:15:50;;;;;;;10.38;9.35;;;25.70;59.90;;;;;;4311623;33;20083;-43
2021/07/30 01:18:16;;;;;;;12.35;9.77;;;25.70;60.10;;;;;;4350373;32;20081;-44
2021/07/30 01:20:44;;;;;;;10.95;9.85;;;25.70;60.20;;;;;;4358499;32;20098;-45
2021/07/30 01:23:10;;;;;;;11.00;8.93;;;25.70;60.30;;;;;;4358781;32;20151;-44
2021/07/30 01:25:37;;;;;;;11.43;10.43;;;25.70;60.30;;;;;;4358237;32;20465;-44
2021/07/30 01:28:04;;;;;;;10.27;9.10;;;25.80;60.40;;;;;;4313843;33;20215;-43
2021/07/30 01:30:31;;;;;;;10.80;9.65;;;25.80;60.50;;;;;;4326066;33;20667;-43
2021/07/30 01:32:57;;;;;;;10.88;9.82;;;25.80;60.50;;;;;;4326800;33;20066;-43
2021/07/30 01:35:23;;;;;;;15.00;9.93;;;25.80;60.60;;;;;;4326104;33;20082;-43
2021/07/30 01:37:50;;;;;;;12.88;9.95;;;25.90;60.70;;;;;;4326047;33;20075;-43
2021/07/30 01:40:21;;;;;;;10.20;9.23;;;26.00;60.60;;;;;;4326545;33;20162;-43
2021/07/30 01:42:48;;;;;;;10.25;9.18;;;26.10;60.60;;;;;;4326435;33;20076;-43
2021/07/30 01:45:14;;;;;;;9.52;8.50;;;26.20;60.70;;;;;;4326232;33;20193;-43
2021/07/30 01:47:40;;;;;;;12.20;8.80;;;26.30;60.50;;;;;;4326262;33;20075;-43
2021/07/30 01:50:08;;;;;;;14.43;8.13;;;26.50;60.00;;;;;;4326572;33;20079;-44
2021/07/30 01:52:34;;;;;;;10.23;7.00;;;26.70;59.40;;;;;;4325930;33;20063;-42
2021/07/30 01:55:00;;;;;;;8.38;7.28;;;26.90;58.70;;;;;;4326396;33;20101;-43
2021/07/30 01:57:27;;;;;;;9.23;8.15;;;27.10;58.30;;;;;;4325976;33;20153;-43
2021/07/30 01:59:54;;;;;;;9.43;7.03;;;27.30;57.80;;;;;;4327743;33;20048;-43
2021/07/30 02:02:20;;;;;;;9.70;6.97;;;27.40;57.40;;;;;;4328667;33;20085;-43
2021/07/30 02:04:46;;;;;;;8.52;7.50;;;27.50;56.90;;;;;;4328666;33;20133;-43
2021/07/30 02:07:13;;;;;;;10.43;7.55;;;27.70;56.60;;;;;;4339526;33;20067;-43
2021/07/30 02:09:39;;;;;;;12.05;7.70;;;27.80;56.30;;;;;;4328441;33;20071;-44
2021/07/30 02:12:06;;;;;;;8.85;6.93;;;27.90;56.00;;;;;;4328253;33;20082;-44
2021/07/30 02:14:33;;;;;;;10.68;7.80;;;28.00;55.70;;;;;;4328644;33;20082;-44
2021/07/30 02:16:59;;;;;;;10.73;7.43;;;28.00;55.50;;;;;;4326728;33;20174;-44
2021/07/30 02:19:26;;;;;;;12.43;7.10;;;28.00;55.60;;;;;;4329858;33;20129;-44
2021/07/30 02:21:54;;;;;;;9.00;7.10;;;28.00;55.30;;;;;;4331008;33;20074;-44
2021/07/30 02:24:21;;;;;;;9.75;7.65;;;28.00;55.30;;;;;;4331226;33;20186;-45
2021/07/30 02:26:47;;;;;;;7.03;6.32;;;28.10;55.20;;;;;;4331449;33;20059;-46
2021/07/30 02:29:14;;;;;;;8.80;7.87;;;28.20;55.00;;;;;;4331350;33;20083;-43
2021/07/30 02:31:40;;;;;;;9.93;8.73;;;28.20;54.80;;;;;;4331189;33;20153;-44
2021/07/30 02:34:07;;;;;;;11.38;7.87;;;28.20;54.70;;;;;;4331267;33;20066;-45
2021/07/30 02:36:34;;;;;;;9.02;7.35;;;28.20;54.80;;;;;;4331307;33;20064;-44
2021/07/30 02:39:01;;;;;;;12.50;7.28;;;28.30;54.70;;;;;;4341707;33;20062;-44
2021/07/30 02:41:27;;;;;;;12.05;7.82;;;28.40;54.70;;;;;;4331301;33;20063;-43
2021/07/30 02:43:55;;;;;;;13.23;7.50;;;28.40;54.30;;;;;;4331076;33;20148;-44
2021/07/30 02:46:22;;;;;;;9.95;8.02;;;28.50;54.10;;;;;;4341683;33;20480;-44
2021/07/30 02:48:48;;;;;;;8.43;7.45;;;28.50;54.10;;;;;;4331175;33;20078;-44
2021/07/30 02:51:15;;;;;;;11.80;7.32;;;28.50;54.00;;;;;;4342079;33;20073;-43
2021/07/30 02:53:41;;;;;;;10.40;7.78;;;28.50;54.00;;;;;;4330890;33;20161;-43
2021/07/30 02:56:08;;;;;;;18.00;7.87;;;28.50;54.00;;;;;;4330865;33;20573;-46
2021/07/30 02:58:36;;;;;;;8.30;6.78;;;28.50;54.00;;;;;;4334557;33;20087;-43
2021/07/30 03:01:03;;;;;;;9.48;7.47;;;28.50;53.40;;;;;;4345223;33;20100;-44
2021/07/30 03:03:30;;;;;;;8.77;7.45;;;28.60;53.30;;;;;;4345522;32;20042;-44
2021/07/30 03:06:00;;;;;;;8.63;7.43;;;28.60;53.10;;;;;;4345439;32;20160;-44
2021/07/30 03:08:28;;;;;;;12.32;7.70;;;28.50;53.00;;;;;;4345386;32;20526;-44
2021/07/30 03:10:55;;;;;;;7.95;7.15;;;28.50;53.20;;;;;;4345855;32;20137;-44
2021/07/30 03:13:21;;;;;;;12.85;7.80;;;28.60;53.40;;;;;;4345594;32;20067;-44
2021/07/30 03:15:53;;;;;;;10.55;8.02;;;28.70;53.50;;;;;;4345309;32;20179;-44
2021/07/30 03:18:19;;;;;;;11.50;8.25;;;28.80;53.20;;;;;;4345032;32;20474;-44
2021/07/30 03:20:46;;;;;;;12.15;6.93;;;28.90;52.90;;;;;;4345310;32;20094;-44
2021/07/30 03:23:12;;;;;;;10.82;6.75;;;29.10;53.00;;;;;;4345307;32;20518;-44
2021/07/30 03:25:39;;;;;;;7.15;6.05;;;29.20;52.60;;;;;;4343218;33;20089;-44
2021/07/30 03:28:05;;;;;;;11.50;7.15;;;29.30;52.00;;;;;;4345094;33;20071;-44
2021/07/30 03:30:32;;;;;;;9.10;6.20;;;29.40;51.80;;;;;;4343125;32;20086;-44
2021/07/30 03:32:58;;;;;;;11.60;6.75;;;29.40;51.20;;;;;;4344898;32;20475;-44
2021/07/30 03:35:25;;;;;;;17.70;7.12;;;29.50;51.30;;;;;;4345221;32;20154;-44
2021/07/30 03:37:51;;;;;;;22.73;8.10;;;29.60;51.40;;;;;;4344989;32;20078;-45
2021/07/30 03:40:18;;;;;;;9.38;5.75;;;29.80;51.10;;;;;;4345272;33;20070;-45
2021/07/30 03:42:44;;;;;;;6.72;6.03;;;29.90;50.30;;;;;;4344945;32;20058;-44
2021/07/30 03:45:11;;;;;;;30.37;7.43;;;30.10;49.50;;;;;;4345224;32;20158;-44
2021/07/30 03:47:37;;;;;;;25.48;8.10;;;30.20;49.60;;;;;;4344614;33;20164;-44
2021/07/30 03:50:04;;;;;;;11.60;6.25;;;30.30;49.00;;;;;;4345120;32;20114;-45
2021/07/30 03:52:31;;;;;;;18.12;6.30;;;30.50;48.40;;;;;;4344578;32;20155;-44
2021/07/30 03:54:57;;;;;;;15.73;5.87;;;30.60;48.20;;;;;;4330126;33;20070;-44
2021/07/30 03:57:23;;;;;;;12.65;5.78;;;30.80;47.80;;;;;;4330017;33;20082;-45
2021/07/30 03:59:53;;;;;;;13.77;6.53;;;30.90;47.50;;;;;;4355551;32;20080;-44
2021/07/30 04:02:19;;;;;;;15.25;5.65;;;31.00;47.20;;;;;;4359764;32;20604;-45
2021/07/30 04:04:46;;;;;;;12.93;5.70;;;31.00;47.10;;;;;;4357980;32;20067;-44
2021/07/30 04:07:12;;;;;;;10.88;5.35;;;31.10;47.00;;;;;;4359607;32;20156;-45
2021/07/30 04:09:39;;;;;;;5.07;4.55;;;31.20;46.60;;;;;;4359402;32;20151;-46
2021/07/30 04:12:06;;;;;;;6.75;4.32;;;31.30;46.20;;;;;;4359105;32;20078;-45
2021/07/30 04:14:32;;;;;;;6.70;4.70;;;31.40;46.00;;;;;;4359331;32;20139;-45
2021/07/30 04:16:59;;;;;;;8.70;4.80;;;31.60;45.60;;;;;;4359262;32;20164;-45
2021/07/30 04:19:25;;;;;;;4.30;3.90;;;31.70;45.60;;;;;;4358978;32;20503;-45
2021/07/30 04:21:51;;;;;;;6.70;4.82;;;31.90;45.40;;;;;;4359355;32;20512;-44
2021/07/30 04:24:18;;;;;;;16.30;5.30;;;31.90;45.20;;;;;;4359265;32;20153;-45
2021/07/30 04:26:45;;;;;;;9.98;5.93;;;31.90;45.60;;;;;;4358768;32;20066;-45
2021/07/30 04:29:11;;;;;;;6.25;5.68;;;32.00;45.90;;;;;;4358851;32;20101;-45
2021/07/30 04:31:40;;;;;;;7.18;6.50;;;32.00;45.80;;;;;;4359152;32;20130;-45
2021/07/30 04:34:07;;;;;;;13.40;6.43;;;32.10;46.10;;;;;;4358977;32;20073;-46
2021/07/30 04:36:34;;;;;;;11.80;6.60;;;32.10;45.90;;;;;;4358898;32;20557;-45
2021/07/30 04:39:00;;;;;;;7.15;6.35;;;32.10;45.80;;;;;;4357365;32;20147;-44
2021/07/30 04:41:27;;;;;;;9.75;6.95;;;32.20;45.50;;;;;;4358424;32;20070;-45
2021/07/30 04:43:53;;;;;;;7.37;6.28;;;32.10;45.60;;;;;;4358936;32;20537;-43
2021/07/30 04:46:20;;;;;;;14.02;6.95;;;32.00;45.40;;;;;;4358661;32;20082;-45
2021/07/30 04:48:46;;;;;;;12.85;6.70;;;32.00;45.60;;;;;;4359081;32;20147;-44
2021/07/30 04:51:13;;;;;;;10.65;6.57;;;31.90;45.70;;;;;;4358671;32;20097;-44
2021/07/30 04:53:39;;;;;;;10.77;6.32;;;32.00;45.70;;;;;;4358956;32;20412;-44
2021/07/30 04:56:06;;;;;;;7.20;6.53;;;32.10;45.70;;;;;;4358955;32;20141;-44
2021/07/30 04:58:32;;;;;;;10.75;5.55;;;32.20;45.70;;;;;;4358867;32;20487;-44
2021/07/30 05:01:04;;;;;;;8.05;5.28;;;32.30;45.70;;;;;;4358840;32;20074;-44
2021/07/30 05:03:30;;;;;;;8.30;4.72;;;32.40;45.00;;;;;;4358821;32;20085;-45
2021/07/30 05:05:57;;;;;;;5.30;4.10;;;32.50;44.10;;;;;;4358618;32;20147;-44
2021/07/30 05:08:23;;;;;;;5.72;4.00;;;32.70;43.90;;;;;;4358367;32;20074;-44
2021/07/30 05:10:50;;;;;;;5.75;4.07;;;32.80;42.80;;;;;;4358890;32;20136;-45
2021/07/30 05:13:17;;;;;;;4.55;3.80;;;33.00;41.90;;;;;;4358676;32;20230;-44
2021/07/30 05:15:43;;;;;;;7.43;4.85;;;33.10;41.30;;;;;;4358430;32;20652;-45
2021/07/30 05:18:10;;;;;;;5.93;4.87;;;33.20;41.80;;;;;;4358268;32;20070;-44
2021/07/30 05:20:39;;;;;;;6.97;3.60;;;33.30;41.80;;;;;;4325515;33;20211;-45
2021/07/30 05:23:05;;;;;;;6.05;4.12;;;33.50;41.40;;;;;;4326137;33;20103;-44
2021/07/30 05:25:32;;;;;;;7.10;4.50;;;33.60;40.80;;;;;;4325629;33;20090;-44
2021/07/30 05:27:58;;;;;;;8.90;4.12;;;33.60;40.80;;;;;;4326300;33;20097;-44
2021/07/30 05:30:25;;;;;;;4.37;3.83;;;33.60;40.90;;;;;;4326205;33;20440;-44
2021/07/30 05:32:51;;;;;;;8.15;3.92;;;33.70;40.80;;;;;;4326552;33;20075;-44
2021/07/30 05:35:18;;;;;;;6.72;4.20;;;33.70;40.50;;;;;;4326509;33;20086;-44
2021/07/30 05:37:44;;;;;;;4.12;3.83;;;33.70;40.60;;;;;;4326058;33;20117;-44
2021/07/30 05:40:11;;;;;;;8.77;4.20;;;33.70;40.50;;;;;;4325962;33;20646;-44
2021/07/30 05:42:38;;;;;;;10.23;4.55;;;33.60;40.80;;;;;;4325856;33;20075;-44
2021/07/30 05:45:05;;;;;;;6.45;4.50;;;33.60;41.00;;;;;;4325978;33;20532;-43
2021/07/30 05:47:31;;;;;;;4.50;3.90;;;33.60;40.80;;;;;;4326227;33;20083;-43
2021/07/30 05:49:57;;;;;;;4.12;3.70;;;33.50;40.70;;;;;;4325931;33;20166;-44
2021/07/30 05:52:24;;;;;;;6.68;4.00;;;33.40;41.00;;;;;;4316516;33;20153;-43
2021/07/30 05:54:50;;;;;;;5.60;4.35;;;33.40;41.30;;;;;;4311409;33;20222;-43
2021/07/30 05:57:17;;;;;;;7.28;4.07;;;33.40;40.80;;;;;;4314340;33;21102;-44
2021/07/30 05:59:47;;;;;;;5.07;4.43;;;33.30;40.60;;;;;;4340546;33;20073;-44
2021/07/30 06:02:14;;;;;;;4.75;4.35;;;33.20;40.60;;;;;;4343479;33;20512;-43
2021/07/30 06:04:41;;;;;;;9.32;3.47;;;33.20;40.50;;;;;;4342989;33;20600;-44
2021/07/30 06:07:07;;;;;;;10.25;5.82;;;33.30;40.60;;;;;;4343226;33;20151;-42
2021/07/30 06:09:34;;;;;;;4.62;4.10;;;33.30;40.50;;;;;;4343275;33;20066;-44
2021/07/30 06:12:00;;;;;;;4.53;3.53;;;33.30;40.40;;;;;;4343118;33;20085;-44
2021/07/30 06:14:26;;;;;;;3.65;3.45;;;33.40;39.80;;;;;;4343108;33;20083;-44
2021/07/30 06:16:53;;;;;;;5.68;3.92;;;33.40;40.00;;;;;;4343002;33;20503;-45
2021/07/30 06:19:19;;;;;;;8.63;3.97;;;33.50;40.00;;;;;;4343141;33;20125;-44
2021/07/30 06:21:46;;;;;;;6.75;3.92;;;33.60;40.10;;;;;;4343040;33;20152;-44
2021/07/30 06:24:12;;;;;;;4.43;4.12;;;33.70;40.80;;;;;;4342950;33;20165;-44
2021/07/30 06:26:39;;;;;;;6.55;4.05;;;33.80;39.70;;;;;;4342538;33;20118;-44
2021/07/30 06:29:05;;;;;;;5.07;4.00;;;33.90;39.60;;;;;;4342928;33;20135;-43
2021/07/30 06:31:32;;;;;;;5.87;3.87;;;34.00;39.40;;;;;;4343004;33;20059;-46
2021/07/30 06:33:58;;;;;;;7.95;4.30;;;34.10;39.20;;;;;;4343008;33;20106;-44
2021/07/30 06:36:24;;;;;;;4.93;4.53;;;34.20;39.20;;;;;;4342743;32;20046;-42
2021/07/30 06:38:51;;;;;;;6.65;4.62;;;34.30;38.90;;;;;;4342931;33;20071;-44
2021/07/30 06:41:18;;;;;;;8.07;5.07;;;34.30;39.00;;;;;;4343087;33;20163;-44
2021/07/30 06:43:44;;;;;;;5.95;3.65;;;34.40;38.80;;;;;;4343145;33;20098;-43
2021/07/30 06:46:11;;;;;;;5.10;3.90;;;34.60;38.50;;;;;;4342837;33;20555;-44
2021/07/30 06:48:37;;;;;;;5.70;4.07;;;34.70;38.30;;;;;;4329226;33;20538;-44
2021/07/30 06:51:04;;;;;;;5.05;4.43;;;34.80;38.10;;;;;;4342797;33;20101;-43
2021/07/30 06:53:30;;;;;;;4.55;4.07;;;34.80;37.70;;;;;;4343072;32;20200;-41
2021/07/30 06:55:57;;;;;;;5.95;4.07;;;34.80;37.70;;;;;;4343444;32;20090;-44
2021/07/30 06:58:23;;;;;;;6.65;4.57;;;34.80;37.90;;;;;;4342875;32;20516;-43
2021/07/30 07:00:50;;;;;;;5.00;4.40;;;34.80;37.90;;;;;;4343057;32;20093;-43
2021/07/30 07:03:16;;;;;;;5.07;4.32;;;34.80;38.10;;;;;;4342606;32;20086;-44
2021/07/30 07:05:43;;;;;;;9.32;4.32;;;34.80;37.80;;;;;;4344465;32;20066;-44
2021/07/30 07:08:09;;;;;;;5.30;4.80;;;34.90;37.50;;;;;;4345483;32;20578;-43
2021/07/30 07:10:36;;;;;;;4.25;3.85;;;34.80;38.00;;;;;;4345472;32;20147;-44
2021/07/30 07:13:03;;;;;;;5.05;3.62;;;34.90;37.70;;;;;;4345406;32;20508;-43
2021/07/30 07:15:29;;;;;;;5.57;4.12;;;35.00;37.80;;;;;;4345585;32;20166;-43
2021/07/30 07:17:56;;;;;;;9.88;3.80;;;35.00;37.60;;;;;;4345864;33;20055;-42
2021/07/30 07:20:22;;;;;;;4.65;3.55;;;35.10;37.70;;;;;;4345295;33;20523;-43
2021/07/30 07:22:48;;;;;;;13.52;4.80;;;35.20;37.70;;;;;;4344933;33;20067;-43
2021/07/30 07:25:15;;;;;;;4.00;3.65;;;35.30;37.70;;;;;;4345157;32;20050;-42
2021/07/30 07:27:41;;;;;;;4.57;4.12;;;35.40;37.30;;;;;;4345442;32;20176;-43
2021/07/30 07:30:09;;;;;;;6.60;3.72;;;35.40;37.20;;;;;;4345036;32;20082;-44
2021/07/30 07:32:35;;;;;;;4.97;4.03;;;35.40;37.30;;;;;;4345056;32;20078;-45
2021/07/30 07:35:02;;;;;;;13.55;4.60;;;35.40;37.30;;;;;;4345225;33;20078;-45
2021/07/30 07:37:28;;;;;;;3.70;3.40;;;35.50;36.90;;;;;;4345028;32;20055;-47
2021/07/30 07:39:55;;;;;;;4.20;3.80;;;35.70;37.20;;;;;;4344792;32;20113;-46
2021/07/30 07:42:21;;;;;;;6.00;4.00;;;35.80;36.70;;;;;;4344899;33;20063;-45
2021/07/30 07:44:51;;;;;;;3.85;3.55;;;35.90;36.40;;;;;;4345197;32;20612;-44
2021/07/30 07:47:17;;;;;;;3.92;3.62;;;36.10;36.00;;;;;;4343277;33;20598;-44
2021/07/30 07:49:44;;;;;;;5.12;3.70;;;36.20;35.80;;;;;;4343649;33;20078;-44
2021/07/30 07:52:10;;;;;;;5.95;3.65;;;36.30;35.50;;;;;;4353536;32;20070;-44
2021/07/30 07:54:37;;;;;;;5.05;4.37;;;36.30;35.90;;;;;;4359819;32;20113;-44
2021/07/30 07:57:07;;;;;;;3.65;3.30;;;36.30;36.10;;;;;;4345826;32;20065;-43
2021/07/30 07:59:35;;;;;;;4.40;3.58;;;36.30;36.20;;;;;;4359385;32;20086;-44
2021/07/30 08:02:04;;;;;;;4.55;4.10;;;36.50;36.10;;;;;;4359904;32;20074;-43
2021/07/30 08:04:31;;;;;;;4.30;4.00;;;36.60;35.80;;;;;;4360031;32;20106;-43
2021/07/30 08:06:59;;;;;;;3.60;3.30;;;36.70;35.60;;;;;;4359530;32;20086;-43
2021/07/30 08:09:26;;;;;;;4.07;3.67;;;36.80;34.50;;;;;;4345900;32;20069;-43
2021/07/30 08:11:52;;;;;;;3.50;3.20;;;37.00;34.70;;;;;;4345690;32;20470;-44
2021/07/30 08:14:18;;;;;;;5.45;2.95;;;37.10;34.90;;;;;;4359229;32;20065;-44
2021/07/30 08:16:45;;;;;;;6.00;3.47;;;37.20;34.60;;;;;;4358614;32;20089;-46
2021/07/30 08:19:12;;;;;;;3.30;3.00;;;37.20;34.50;;;;;;4359597;32;20503;-46
2021/07/30 08:21:38;;;;;;;4.90;3.17;;;37.30;33.90;;;;;;4345675;32;20600;-48
2021/07/30 08:24:05;;;;;;;3.62;3.22;;;37.40;33.50;;;;;;4359489;32;20138;-44
2021/07/30 08:26:31;;;;;;;8.10;3.20;;;37.40;33.00;;;;;;4359475;32;20147;-48
2021/07/30 08:28:58;;;;;;;4.37;3.92;;;37.40;33.80;;;;;;4359568;32;20163;-49
2021/07/30 08:31:25;;;;;;;4.50;3.17;;;37.40;33.40;;;;;;4359097;32;20073;-50
2021/07/30 08:33:52;;;;;;;4.80;3.20;;;37.20;33.20;;;;;;4359021;32;20570;-49
2021/07/30 08:36:20;;;;;;;3.33;3.03;;;37.10;33.60;;;;;;4359058;32;20537;-51
2021/07/30 08:38:46;;;;;;;3.58;3.20;;;37.10;33.90;;;;;;4359032;32;20432;-51
2021/07/30 08:41:20;;;;;;;4.43;3.53;;;37.10;33.80;;;;;;4359217;32;20090;-52
2021/07/30 08:43:52;;;;;;;4.95;3.42;;;37.10;33.70;;;;;;4358928;32;20078;-51
2021/07/30 08:46:23;;;;;;;4.95;3.75;;;37.00;33.70;;;;;;4358745;32;20082;-53
2021/07/30 08:48:49;;;;;;;3.03;2.62;;;36.90;33.80;;;;;;4344869;32;20074;-51
2021/07/30 08:51:16;;;;;;;3.65;2.78;;;36.90;33.50;;;;;;4355452;32;20066;-55
2021/07/30 08:53:44;;;;;;;4.97;3.40;;;36.90;33.50;;;;;;4330620;33;20063;-51
2021/07/30 08:56:10;;;;;;;5.43;2.65;;;36.80;33.60;;;;;;4330437;33;20604;-50
2021/07/30 08:58:37;;;;;;;5.03;3.40;;;36.80;33.90;;;;;;4332582;33;20058;-49
2021/07/30 09:01:03;;;;;;;5.57;3.80;;;36.90;33.50;;;;;;4343904;33;20142;-52
2021/07/30 09:03:41;;;;;;;3.78;3.20;;;37.00;33.10;;;;;;4343858;33;20129;-52
2021/07/30 09:06:18;;;;;;;5.70;2.90;;;37.00;34.00;;;;;;4344381;32;20078;-46
2021/07/30 09:08:54;;;;;;;3.35;3.05;;;37.10;33.30;;;;;;4342572;33;20070;-55
2021/07/30 09:11:35;;;;;;;3.70;3.40;;;37.20;33.20;;;;;;4343617;32;20492;-52
2021/07/30 09:14:04;;;;;;;4.90;3.70;;;37.40;32.90;;;;;;4354649;32;20078;-50
2021/07/30 09:16:45;;;;;;;3.72;3.37;;;37.50;32.80;;;;;;4343527;32;20079;-51
2021/07/30 09:19:11;;;;;;;3.67;3.30;;;37.50;32.60;;;;;;4343683;32;20099;-52
2021/07/30 09:21:38;;;;;;;2.97;2.78;;;37.60;32.50;;;;;;4342174;32;20087;-45
2021/07/30 09:24:09;;;;;;;4.87;2.97;;;37.60;32.40;;;;;;4343686;32;20133;-48
2021/07/30 09:26:41;;;;;;;4.30;3.30;;;37.80;32.40;;;;;;4343719;32;20094;-50
2021/07/30 09:29:19;;;;;;;2.78;2.55;;;37.90;32.10;;;;;;4343844;32;20058;-49
2021/07/30 09:31:51;;;;;;;4.82;3.50;;;37.90;32.20;;;;;;4310973;33;20119;-51
2021/07/30 09:34:29;;;;;;;5.45;3.53;;;38.00;32.30;;;;;;4311697;33;20079;-48
2021/07/30 09:37:03;;;;;;;3.65;3.05;;;38.20;31.80;;;;;;4311428;33;20535;-49
2021/07/30 09:39:42;;;;;;;2.95;2.45;;;38.30;31.50;;;;;;4311582;33;20526;-47
2021/07/30 09:42:13;;;;;;;7.70;3.03;;;38.30;31.60;;;;;;4311447;33;20075;-44
2021/07/30 09:44:47;;;;;;;5.68;3.60;;;38.30;31.60;;;;;;4311585;33;20266;-45
2021/07/30 09:47:18;;;;;;;;;;;38.30;31.50;;;;;;4311990;33;20082;-50
2021/07/30 09:49:59;;;;;;;3.45;3.15;;;38.20;31.70;;;;;;4311486;33;20056;-53
2021/07/30 09:52:32;;;;;;;3.35;2.65;;;38.30;31.10;;;;;;4299714;33;20095;-52
2021/07/30 09:55:03;;;;;;;4.85;3.03;;;38.40;31.30;;;;;;4311696;33;20080;-54
2021/07/30 09:57:34;;;;;;;3.15;2.80;;;38.60;31.40;;;;;;4310861;33;20570;-53
2021/07/30 10:00:15;;;;;;;3.40;3.10;;;38.70;30.90;;;;;;4313154;33;20059;-49
2021/07/30 10:02:43;;;;;;;4.53;4.22;;;38.80;30.40;;;;;;4326938;33;20170;-51
2021/07/30 10:05:10;;;;;;;9.50;3.30;;;38.80;30.20;;;;;;4328787;33;20170;-53
2021/07/30 10:07:38;;;;;;;3.28;2.87;;;39.00;30.90;;;;;;4326943;33;20064;-50
2021/07/30 10:10:18;;;;;;;3.97;3.05;;;39.20;30.40;;;;;;4328468;33;20075;-53
2021/07/30 10:12:52;;;;;;;2.90;2.70;;;39.30;30.40;;;;;;4328133;33;20228;-50
2021/07/30 10:15:18;;;;;;;4.65;3.42;;;39.30;30.00;;;;;;4328283;33;20624;-50
2021/07/30 10:17:47;;;;;;;3.45;2.97;;;39.30;30.30;;;;;;4328357;33;20164;-51
2021/07/30 10:20:15;;;;;;;3.85;2.95;;;39.30;30.00;;;;;;4328266;33;20075;-52
2021/07/30 10:22:48;;;;;;;4.90;3.10;;;39.30;29.90;;;;;;4328164;33;20059;-50
2021/07/30 10:25:23;;;;;;;4.07;3.12;;;39.20;29.90;;;;;;4327091;33;20098;-54
2021/07/30 10:28:32;;;;;;;3.70;3.22;;;38.90;30.00;;;;;;4326504;33;20106;-50
2021/07/30 10:31:02;;;;;;;3.62;3.37;;;38.80;30.20;;;;;;4328240;33;20063;-53
2021/07/30 10:33:34;;;;;;;3.90;2.90;;;38.60;30.20;;;;;;4327768;33;20085;-53
2021/07/30 10:36:28;;;;;;;3.25;2.97;;;38.60;30.40;;;;;;4328261;33;20525;-55
2021/07/30 10:39:18;;;;;;;3.45;3.05;;;38.60;30.60;;;;;;4327814;33;20067;-49
2021/07/30 10:42:10;;;;;;;3.10;2.83;;;38.50;30.60;;;;;;4325096;33;20069;-53
2021/07/30 10:45:19;;;;;;;4.60;2.80;;;38.40;30.70;;;;;;4331012;33;20063;-51
2021/07/30 10:47:45;;;;;;;6.68;3.30;;;38.30;30.80;;;;;;4331050;33;20677;-52
2021/07/30 10:50:48;;;;;;;6.43;3.33;;;38.40;30.90;;;;;;4329342;33;20078;-52
2021/07/30 10:53:39;;;;;;;2.87;2.67;;;38.60;30.80;;;;;;4327983;33;20596;-46
2021/07/30 10:56:07;;;;;;;3.58;3.28;;;38.70;30.50;;;;;;4328101;33;20593;-49
2021/07/30 10:58:59;;;;;;;6.10;3.17;;;38.80;30.00;;;;;;4328241;33;20229;-47
2021/07/30 11:01:28;;;;;;;5.68;4.03;;;38.80;30.20;;;;;;4321967;33;20692;-47
2021/07/30 11:04:07;;;;;;;3.17;2.92;;;38.70;30.30;;;;;;4328166;33;20064;-47
2021/07/30 11:06:39;;;;;;;4.80;3.62;;;38.90;30.30;;;;;;4328182;33;20087;-47
2021/07/30 11:09:09;;;;;;;3.35;2.50;;;39.10;30.10;;;;;;4328362;33;20566;-49
2021/07/30 11:11:52;;;;;;;4.55;3.10;;;39.20;30.00;;;;;;4327996;33;20062;-48
2021/07/30 11:14:27;;;;;;;6.55;2.72;;;39.20;30.20;;;;;;4327778;33;20110;-50
2021/07/30 11:17:05;;;;;;;3.30;2.78;;;39.30;30.30;;;;;;4316202;33;20074;-49
2021/07/30 11:19:36;;;;;;;4.18;2.78;;;39.40;30.00;;;;;;4328020;33;20090;-51
2021/07/30 11:22:09;;;;;;;2.72;2.53;;;39.50;30.00;;;;;;4328122;33;20657;-50
2021/07/30 11:24:44;;;;;;;4.95;3.00;;;39.70;29.70;;;;;;4328021;33;20549;-50
2021/07/30 11:27:12;;;;;;;6.28;2.62;;;39.90;29.50;;;;;;4329624;33;20134;-51
2021/07/30 11:29:47;;;;;;;3.05;2.55;;;40.00;29.10;;;;;;4330207;33;20491;-52
2021/07/30 11:32:16;;;;;;;4.47;2.67;;;40.00;29.10;;;;;;4330574;33;20181;-49
2021/07/30 11:34:46;;;;;;;2.85;2.65;;;40.00;29.40;;;;;;4331084;33;20082;-48
2021/07/30 11:37:16;;;;;;;4.57;2.85;;;40.00;29.10;;;;;;4330530;33;20078;-47
2021/07/30 11:39:45;;;;;;;5.15;2.58;;;40.00;29.20;;;;;;4330189;33;20546;-51
2021/07/30 11:42:14;;;;;;;3.33;2.78;;;40.10;29.00;;;;;;4330318;33;20470;-52
2021/07/30 11:44:49;;;;;;;2.90;2.40;;;40.10;29.10;;;;;;4330227;33;20082;-50
2021/07/30 11:47:17;;;;;;;5.00;2.42;;;40.10;28.90;;;;;;4329899;33;20113;-45
2021/07/30 11:49:46;;;;;;;3.17;2.97;;;40.10;28.90;;;;;;4330482;33;20550;-49
2021/07/30 11:52:21;;;;;;;3.53;3.25;;;40.10;28.70;;;;;;4338552;33;20186;-48
2021/07/30 11:54:47;;;;;;;7.07;3.50;;;40.00;28.80;;;;;;4343438;33;20097;-46
2021/07/30 11:57:29;;;;;;;5.45;3.08;;;39.90;29.20;;;;;;4343370;33;20067;-51
2021/07/30 11:59:57;;;;;;;4.90;3.05;;;39.90;29.20;;;;;;4345438;32;20160;-47
2021/07/30 12:02:26;;;;;;;2.50;2.30;;;40.00;29.10;;;;;;4345960;32;20058;-49
2021/07/30 12:04:57;;;;;;;4.75;3.20;;;40.30;29.20;;;;;;4359549;32;20070;-46
2021/07/30 12:07:39;;;;;;;3.67;2.92;;;40.50;30.00;;;;;;4359771;32;20094;-49
2021/07/30 12:10:08;;;;;;;2.60;2.40;;;40.90;29.50;;;;;;4359406;32;20058;-47
2021/07/30 12:12:42;;;;;;;3.37;2.15;;;41.20;28.90;;;;;;4359407;32;20108;-51
2021/07/30 12:15:12;;;;;;;2.35;2.12;;;41.40;29.00;;;;;;4359246;32;20656;-50
2021/07/30 12:17:39;;;;;;;6.53;3.22;;;41.50;28.40;;;;;;4333229;32;20178;-52
2021/07/30 12:20:13;;;;;;;2.92;2.33;;;41.80;28.00;;;;;;4333465;32;20549;-50
2021/07/30 12:22:43;;;;;;;;;;;41.90;27.50;;;;;;4359584;32;20071;-49
2021/07/30 12:25:36;;;;;;;3.53;2.85;;;41.80;27.70;;;;;;4333493;32;19969;-52
2021/07/30 12:28:14;;;;;;;3.75;2.70;;;41.80;27.80;;;;;;4347456;32;20077;-48
2021/07/30 12:30:40;;;;;;;4.43;2.70;;;41.90;27.60;;;;;;4359255;32;20097;-49
2021/07/30 12:33:26;;;;;;;6.87;3.28;;;41.80;27.70;;;;;;4332937;32;20074;-50
2021/07/30 12:36:08;;;;;;;5.07;3.00;;;41.90;27.70;;;;;;4359053;32;20195;-50
2021/07/30 12:38:50;;;;;;;3.33;2.47;;;42.10;27.50;;;;;;4358950;32;20082;-49
2021/07/30 12:41:21;;;;;;;3.17;2.78;;;42.20;27.40;;;;;;4359793;32;20091;-50
2021/07/30 12:43:48;;;;;;;4.80;2.20;;;42.30;27.50;;;;;;4345718;32;20091;-50
2021/07/30 12:46:35;;;;;;;1.98;1.85;;;42.30;27.20;;;;;;4345004;32;20090;-49
2021/07/30 12:49:04;;;;;;;2.90;2.60;;;42.20;26.90;;;;;;4358741;32;20157;-49
2021/07/30 12:51:32;;;;;;;8.07;2.45;;;42.00;27.10;;;;;;4337961;33;20055;-53
2021/07/30 12:54:05;;;;;;;2.37;2.17;;;41.80;27.30;;;;;;4315646;33;20222;-53
2021/07/30 12:56:53;;;;;;;2.78;2.20;;;41.60;27.20;;;;;;4329302;33;20081;-50